sensor_id;sensor_type;location;lat;lon;timestamp;temperature;humidity
44607;DHT22;30315;46.072;14.474;2023-03-23T00:00:00;14.40;55.80
44607;DHT22;30315;46.072;14.474;2023-03-23T00:02:30;14.40;55.90
44607;DHT22;30315;46.072;14.474;2023-03-23T00:05:10;14.30;55.90
44607;DHT22;30315;46.072;14.474;2023-03-23T00:07:35;14.30;56.00
44607;DHT22;30315;46.072;14.474;2023-03-23T00:10:02;14.30;56.00
44607;DHT22;30315;46.072;14.474;2023-03-23T00:12:31;14.30;56.10
44607;DHT22;30315;46.072;14.474;2023-03-23T00:15:01;14.30;56.10
44607;DHT22;30315;46.072;14.474;2023-03-23T00:17:28;14.30;56.10
44607;DHT22;30315;46.072;14.474;2023-03-23T00:19:55;14.20;55.90
44607;DHT22;30315;46.072;14.474;2023-03-23T00:22:22;14.20;56.00
44607;DHT22;30315;46.072;14.474;2023-03-23T00:24:51;14.10;56.00
44607;DHT22;30315;46.072;14.474;2023-03-23T00:27:17;14.20;56.30
44607;DHT22;30315;46.072;14.474;2023-03-23T00:29:43;14.10;56.20
44607;DHT22;30315;46.072;14.474;2023-03-23T00:32:11;14.10;56.50
44607;DHT22;30315;46.072;14.474;2023-03-23T00:34:42;14.00;56.90
44607;DHT22;30315;46.072;14.474;2023-03-23T00:37:10;14.00;56.40
44607;DHT22;30315;46.072;14.474;2023-03-23T00:39:37;13.90;56.30
44607;DHT22;30315;46.072;14.474;2023-03-23T00:42:04;13.90;56.40
44607;DHT22;30315;46.072;14.474;2023-03-23T00:44:32;13.90;56.90
44607;DHT22;30315;46.072;14.474;2023-03-23T00:47:01;13.90;57.10
44607;DHT22;30315;46.072;14.474;2023-03-23T00:49:27;13.80;57.20
44607;DHT22;30315;46.072;14.474;2023-03-23T00:51:55;13.80;57.40
44607;DHT22;30315;46.072;14.474;2023-03-23T00:54:21;13.80;57.40
44607;DHT22;30315;46.072;14.474;2023-03-23T00:56:49;13.70;57.30
44607;DHT22;30315;46.072;14.474;2023-03-23T00:59:15;13.70;57.50
44607;DHT22;30315;46.072;14.474;2023-03-23T01:01:41;13.70;57.40
44607;DHT22;30315;46.072;14.474;2023-03-23T01:04:07;13.70;57.60
44607;DHT22;30315;46.072;14.474;2023-03-23T01:06:36;13.60;57.60
44607;DHT22;30315;46.072;14.474;2023-03-23T01:09:09;13.60;57.80
44607;DHT22;30315;46.072;14.474;2023-03-23T01:11:35;13.60;57.90
44607;DHT22;30315;46.072;14.474;2023-03-23T01:14:01;13.60;58.00
44607;DHT22;30315;46.072;14.474;2023-03-23T01:16:27;13.60;58.00
44607;DHT22;30315;46.072;14.474;2023-03-23T01:18:53;13.50;57.90
44607;DHT22;30315;46.072;14.474;2023-03-23T01:21:21;13.60;58.00
44607;DHT22;30315;46.072;14.474;2023-03-23T01:23:48;13.50;58.00
44607;DHT22;30315;46.072;14.474;2023-03-23T01:26:16;13.50;58.20
44607;DHT22;30315;46.072;14.474;2023-03-23T01:28:43;13.50;58.20
44607;DHT22;30315;46.072;14.474;2023-03-23T01:31:11;13.40;58.20
44607;DHT22;30315;46.072;14.474;2023-03-23T01:33:39;13.40;58.20
44607;DHT22;30315;46.072;14.474;2023-03-23T01:36:09;13.40;58.30
44607;DHT22;30315;46.072;14.474;2023-03-23T01:38:36;13.40;58.40
44607;DHT22;30315;46.072;14.474;2023-03-23T01:41:03;13.40;58.40
44607;DHT22;30315;46.072;14.474;2023-03-23T01:43:29;13.20;58.30
44607;DHT22;30315;46.072;14.474;2023-03-23T01:45:56;13.30;58.70
44607;DHT22;30315;46.072;14.474;2023-03-23T01:51:11;13.20;58.40
44607;DHT22;30315;46.072;14.474;2023-03-23T01:53:44;13.20;58.50
44607;DHT22;30315;46.072;14.474;2023-03-23T01:56:12;13.20;58.60
44607;DHT22;30315;46.072;14.474;2023-03-23T01:58:40;13.20;58.70
44607;DHT22;30315;46.072;14.474;2023-03-23T02:01:10;13.10;58.70
44607;DHT22;30315;46.072;14.474;2023-03-23T02:03:39;13.10;58.90
44607;DHT22;30315;46.072;14.474;2023-03-23T02:06:07;13.10;58.90
44607;DHT22;30315;46.072;14.474;2023-03-23T02:08:38;13.10;58.90
44607;DHT22;30315;46.072;14.474;2023-03-23T02:11:21;13.00;59.00
44607;DHT22;30315;46.072;14.474;2023-03-23T02:13:48;13.00;59.00
44607;DHT22;30315;46.072;14.474;2023-03-23T02:34:55;12.70;59.60
44607;DHT22;30315;46.072;14.474;2023-03-23T02:37:31;12.70;59.70
44607;DHT22;30315;46.072;14.474;2023-03-23T02:40:09;12.70;59.80
44607;DHT22;30315;46.072;14.474;2023-03-23T02:42:39;12.60;59.70
44607;DHT22;30315;46.072;14.474;2023-03-23T02:45:11;12.60;59.80
44607;DHT22;30315;46.072;14.474;2023-03-23T02:47:39;12.60;60.00
44607;DHT22;30315;46.072;14.474;2023-03-23T02:50:10;12.50;60.10
44607;DHT22;30315;46.072;14.474;2023-03-23T02:52:39;12.50;60.10
44607;DHT22;30315;46.072;14.474;2023-03-23T02:55:07;12.50;60.10
44607;DHT22;30315;46.072;14.474;2023-03-23T02:57:34;12.50;60.40
44607;DHT22;30315;46.072;14.474;2023-03-23T03:00:04;12.50;60.50
44607;DHT22;30315;46.072;14.474;2023-03-23T03:02:38;12.50;60.50
44607;DHT22;30315;46.072;14.474;2023-03-23T03:05:20;12.40;60.70
44607;DHT22;30315;46.072;14.474;2023-03-23T03:08:19;12.50;60.80
44607;DHT22;30315;46.072;14.474;2023-03-23T03:10:55;12.40;60.70
44607;DHT22;30315;46.072;14.474;2023-03-23T03:21:26;12.30;60.70
44607;DHT22;30315;46.072;14.474;2023-03-23T03:23:58;12.30;60.70
44607;DHT22;30315;46.072;14.474;2023-03-23T03:26:28;12.30;60.80
44607;DHT22;30315;46.072;14.474;2023-03-23T03:29:05;12.30;60.70
44607;DHT22;30315;46.072;14.474;2023-03-23T03:31:39;12.20;60.80
44607;DHT22;30315;46.072;14.474;2023-03-23T03:34:06;12.20;60.80
44607;DHT22;30315;46.072;14.474;2023-03-23T03:36:36;11.90;60.40
44607;DHT22;30315;46.072;14.474;2023-03-23T03:39:09;12.20;60.80
44607;DHT22;30315;46.072;14.474;2023-03-23T03:41:37;12.10;60.90
44607;DHT22;30315;46.072;14.474;2023-03-23T03:44:04;12.10;61.00
44607;DHT22;30315;46.072;14.474;2023-03-23T03:46:31;12.00;60.90
44607;DHT22;30315;46.072;14.474;2023-03-23T03:49:02;12.00;61.00
44607;DHT22;30315;46.072;14.474;2023-03-23T03:51:28;12.00;61.20
44607;DHT22;30315;46.072;14.474;2023-03-23T03:53:55;11.90;61.00
44607;DHT22;30315;46.072;14.474;2023-03-23T03:56:22;11.90;61.10
44607;DHT22;30315;46.072;14.474;2023-03-23T03:59:01;11.90;61.20
44607;DHT22;30315;46.072;14.474;2023-03-23T04:01:52;11.80;61.30
44607;DHT22;30315;46.072;14.474;2023-03-23T04:04:21;11.80;61.50
44607;DHT22;30315;46.072;14.474;2023-03-23T04:06:48;11.80;61.70
44607;DHT22;30315;46.072;14.474;2023-03-23T04:09:16;11.80;61.80
44607;DHT22;30315;46.072;14.474;2023-03-23T04:11:41;11.80;61.80
44607;DHT22;30315;46.072;14.474;2023-03-23T04:14:40;11.80;61.90
44607;DHT22;30315;46.072;14.474;2023-03-23T04:17:07;11.80;62.10
44607;DHT22;30315;46.072;14.474;2023-03-23T04:19:36;11.70;62.10
44607;DHT22;30315;46.072;14.474;2023-03-23T04:22:04;11.70;62.00
44607;DHT22;30315;46.072;14.474;2023-03-23T04:24:33;11.60;62.10
44607;DHT22;30315;46.072;14.474;2023-03-23T04:27:00;11.70;62.40
44607;DHT22;30315;46.072;14.474;2023-03-23T04:29:28;11.70;62.40
44607;DHT22;30315;46.072;14.474;2023-03-23T04:32:27;11.70;62.40
44607;DHT22;30315;46.072;14.474;2023-03-23T04:34:57;11.60;62.30
44607;DHT22;30315;46.072;14.474;2023-03-23T04:37:33;11.60;62.50
44607;DHT22;30315;46.072;14.474;2023-03-23T04:40:01;11.50;62.50
44607;DHT22;30315;46.072;14.474;2023-03-23T04:42:38;11.50;62.50
44607;DHT22;30315;46.072;14.474;2023-03-23T04:45:27;11.50;62.60
44607;DHT22;30315;46.072;14.474;2023-03-23T04:47:54;11.50;62.60
44607;DHT22;30315;46.072;14.474;2023-03-23T04:50:32;11.50;62.60
44607;DHT22;30315;46.072;14.474;2023-03-23T04:53:05;11.50;62.70
44607;DHT22;30315;46.072;14.474;2023-03-23T04:55:33;11.40;62.70
44607;DHT22;30315;46.072;14.474;2023-03-23T04:58:06;11.40;62.70
44607;DHT22;30315;46.072;14.474;2023-03-23T05:00:43;11.50;62.80
44607;DHT22;30315;46.072;14.474;2023-03-23T05:03:10;11.40;62.80
44607;DHT22;30315;46.072;14.474;2023-03-23T05:05:37;11.40;62.80
44607;DHT22;30315;46.072;14.474;2023-03-23T05:08:06;11.40;62.70
44607;DHT22;30315;46.072;14.474;2023-03-23T05:10:36;11.40;62.80
44607;DHT22;30315;46.072;14.474;2023-03-23T05:13:07;11.40;62.80
44607;DHT22;30315;46.072;14.474;2023-03-23T05:15:33;11.10;62.70
44607;DHT22;30315;46.072;14.474;2023-03-23T05:18:00;11.30;62.80
44607;DHT22;30315;46.072;14.474;2023-03-23T05:20:26;11.30;62.90
44607;DHT22;30315;46.072;14.474;2023-03-23T05:22:58;11.30;63.00
44607;DHT22;30315;46.072;14.474;2023-03-23T05:25:29;11.30;63.10
44607;DHT22;30315;46.072;14.474;2023-03-23T05:28:03;11.20;63.00
44607;DHT22;30315;46.072;14.474;2023-03-23T05:30:51;11.20;63.20
44607;DHT22;30315;46.072;14.474;2023-03-23T05:33:19;11.30;63.30
44607;DHT22;30315;46.072;14.474;2023-03-23T05:35:50;11.20;63.30
44607;DHT22;30315;46.072;14.474;2023-03-23T05:38:22;11.30;63.50
44607;DHT22;30315;46.072;14.474;2023-03-23T05:40:49;11.30;63.50
44607;DHT22;30315;46.072;14.474;2023-03-23T05:43:18;11.30;63.60
44607;DHT22;30315;46.072;14.474;2023-03-23T05:46:05;11.20;63.40
44607;DHT22;30315;46.072;14.474;2023-03-23T05:48:35;11.30;63.50
44607;DHT22;30315;46.072;14.474;2023-03-23T05:51:02;11.30;63.60
44607;DHT22;30315;46.072;14.474;2023-03-23T05:53:30;11.30;63.60
44607;DHT22;30315;46.072;14.474;2023-03-23T05:56:01;11.40;63.60
44607;DHT22;30315;46.072;14.474;2023-03-23T05:58:50;11.40;63.50
44607;DHT22;30315;46.072;14.474;2023-03-23T06:01:16;11.40;63.50
44607;DHT22;30315;46.072;14.474;2023-03-23T06:03:42;11.50;63.50
44607;DHT22;30315;46.072;14.474;2023-03-23T06:06:21;11.40;63.50
44607;DHT22;30315;46.072;14.474;2023-03-23T06:08:52;11.50;63.70
44607;DHT22;30315;46.072;14.474;2023-03-23T06:11:28;11.50;63.70
44607;DHT22;30315;46.072;14.474;2023-03-23T06:14:15;11.60;63.70
44607;DHT22;30315;46.072;14.474;2023-03-23T06:16:43;11.60;64.40
44607;DHT22;30315;46.072;14.474;2023-03-23T06:19:13;11.70;63.60
44607;DHT22;30315;46.072;14.474;2023-03-23T06:21:45;11.70;63.50
44607;DHT22;30315;46.072;14.474;2023-03-23T06:24:31;11.80;63.60
44607;DHT22;30315;46.072;14.474;2023-03-23T06:26:59;11.80;63.50
44607;DHT22;30315;46.072;14.474;2023-03-23T06:29:26;11.90;63.60
44607;DHT22;30315;46.072;14.474;2023-03-23T06:32:00;11.90;63.40
44607;DHT22;30315;46.072;14.474;2023-03-23T06:34:28;12.00;63.40
44607;DHT22;30315;46.072;14.474;2023-03-23T06:37:13;12.10;63.40
44607;DHT22;30315;46.072;14.474;2023-03-23T06:39:59;12.10;63.40
44607;DHT22;30315;46.072;14.474;2023-03-23T06:42:34;12.20;63.70
44607;DHT22;30315;46.072;14.474;2023-03-23T06:45:20;12.30;64.10
44607;DHT22;30315;46.072;14.474;2023-03-23T06:47:50;12.40;63.00
44607;DHT22;30315;46.072;14.474;2023-03-23T06:50:16;12.40;62.90
44607;DHT22;30315;46.072;14.474;2023-03-23T06:52:47;12.50;62.70
44607;DHT22;30315;46.072;14.474;2023-03-23T06:55:14;12.60;62.60
44607;DHT22;30315;46.072;14.474;2023-03-23T06:57:40;12.70;62.30
44607;DHT22;30315;46.072;14.474;2023-03-23T07:00:07;12.80;62.40
44607;DHT22;30315;46.072;14.474;2023-03-23T07:02:34;12.90;62.30
44607;DHT22;30315;46.072;14.474;2023-03-23T07:05:01;13.00;62.00
44607;DHT22;30315;46.072;14.474;2023-03-23T07:07:29;13.10;61.80
44607;DHT22;30315;46.072;14.474;2023-03-23T07:10:30;13.20;61.50
44607;DHT22;30315;46.072;14.474;2023-03-23T07:12:58;13.20;61.30
44607;DHT22;30315;46.072;14.474;2023-03-23T07:15:27;13.30;61.60
44607;DHT22;30315;46.072;14.474;2023-03-23T07:17:55;13.40;61.90
44607;DHT22;30315;46.072;14.474;2023-03-23T07:20:33;13.50;62.00
44607;DHT22;30315;46.072;14.474;2023-03-23T07:22:59;13.60;61.80
44607;DHT22;30315;46.072;14.474;2023-03-23T07:25:38;13.60;61.80
44607;DHT22;30315;46.072;14.474;2023-03-23T07:28:07;13.70;61.80
44607;DHT22;30315;46.072;14.474;2023-03-23T07:30:33;13.80;61.90
44607;DHT22;30315;46.072;14.474;2023-03-23T07:32:59;13.90;62.50
44607;DHT22;30315;46.072;14.474;2023-03-23T07:35:25;13.90;61.60
44607;DHT22;30315;46.072;14.474;2023-03-23T07:38:00;14.00;61.60
44607;DHT22;30315;46.072;14.474;2023-03-23T07:40:27;14.10;61.60
44607;DHT22;30315;46.072;14.474;2023-03-23T07:42:59;14.10;61.40
44607;DHT22;30315;46.072;14.474;2023-03-23T07:45:49;14.20;61.40
44607;DHT22;30315;46.072;14.474;2023-03-23T07:48:16;14.40;61.60
44607;DHT22;30315;46.072;14.474;2023-03-23T07:50:42;14.30;61.30
44607;DHT22;30315;46.072;14.474;2023-03-23T07:53:11;14.40;61.40
44607;DHT22;30315;46.072;14.474;2023-03-23T07:55:39;14.50;61.30
44607;DHT22;30315;46.072;14.474;2023-03-23T07:58:25;14.60;60.90
44607;DHT22;30315;46.072;14.474;2023-03-23T08:00:54;14.70;60.50
44607;DHT22;30315;46.072;14.474;2023-03-23T08:03:25;14.90;60.90
44607;DHT22;30315;46.072;14.474;2023-03-23T08:06:10;15.00;60.60
44607;DHT22;30315;46.072;14.474;2023-03-23T08:08:56;15.10;60.10
44607;DHT22;30315;46.072;14.474;2023-03-23T08:11:41;15.20;59.80
44607;DHT22;30315;46.072;14.474;2023-03-23T08:14:26;15.30;59.70
44607;DHT22;30315;46.072;14.474;2023-03-23T08:17:13;15.50;59.70
44607;DHT22;30315;46.072;14.474;2023-03-23T08:20:03;15.50;59.50
44607;DHT22;30315;46.072;14.474;2023-03-23T08:22:56;15.70;59.10
44607;DHT22;30315;46.072;14.474;2023-03-23T08:25:43;15.80;59.00
44607;DHT22;30315;46.072;14.474;2023-03-23T08:28:30;16.00;59.20
44607;DHT22;30315;46.072;14.474;2023-03-23T08:31:10;16.20;59.10
44607;DHT22;30315;46.072;14.474;2023-03-23T08:33:55;16.30;58.70
44607;DHT22;30315;46.072;14.474;2023-03-23T08:36:32;16.40;58.50
44607;DHT22;30315;46.072;14.474;2023-03-23T08:39:17;16.50;58.20
44607;DHT22;30315;46.072;14.474;2023-03-23T08:41:52;16.60;58.00
44607;DHT22;30315;46.072;14.474;2023-03-23T08:44:47;16.70;57.90
44607;DHT22;30315;46.072;14.474;2023-03-23T08:47:34;16.90;57.60
44607;DHT22;30315;46.072;14.474;2023-03-23T08:50:24;16.90;57.20
44607;DHT22;30315;46.072;14.474;2023-03-23T08:53:10;17.00;56.90
44607;DHT22;30315;46.072;14.474;2023-03-23T08:55:46;17.10;57.40
44607;DHT22;30315;46.072;14.474;2023-03-23T08:58:24;17.20;56.80
44607;DHT22;30315;46.072;14.474;2023-03-23T09:01:03;17.30;56.50
44607;DHT22;30315;46.072;14.474;2023-03-23T09:03:42;17.40;56.20
44607;DHT22;30315;46.072;14.474;2023-03-23T09:06:38;17.50;55.80
44607;DHT22;30315;46.072;14.474;2023-03-23T09:09:04;17.50;55.60
44607;DHT22;30315;46.072;14.474;2023-03-23T09:11:36;17.60;55.60
44607;DHT22;30315;46.072;14.474;2023-03-23T09:14:04;17.70;55.80
44607;DHT22;30315;46.072;14.474;2023-03-23T09:16:30;17.80;55.70
44607;DHT22;30315;46.072;14.474;2023-03-23T09:18:57;17.90;55.50
44607;DHT22;30315;46.072;14.474;2023-03-23T09:21:24;17.90;55.10
44607;DHT22;30315;46.072;14.474;2023-03-23T09:23:51;18.10;54.70
44607;DHT22;30315;46.072;14.474;2023-03-23T09:26:18;18.10;54.30
44607;DHT22;30315;46.072;14.474;2023-03-23T09:28:44;18.10;54.00
44607;DHT22;30315;46.072;14.474;2023-03-23T09:31:11;18.20;54.00
44607;DHT22;30315;46.072;14.474;2023-03-23T09:33:38;18.40;54.30
44607;DHT22;30315;46.072;14.474;2023-03-23T09:36:04;18.40;54.10
44607;DHT22;30315;46.072;14.474;2023-03-23T09:38:31;18.60;54.00
44607;DHT22;30315;46.072;14.474;2023-03-23T09:41:14;18.70;53.70
44607;DHT22;30315;46.072;14.474;2023-03-23T09:49:09;18.80;52.80
44607;DHT22;30315;46.072;14.474;2023-03-23T09:51:43;18.80;52.50
44607;DHT22;30315;46.072;14.474;2023-03-23T09:54:29;18.80;52.40
44607;DHT22;30315;46.072;14.474;2023-03-23T09:57:03;18.90;53.00
44607;DHT22;30315;46.072;14.474;2023-03-23T09:59:35;19.10;52.40
44607;DHT22;30315;46.072;14.474;2023-03-23T10:02:52;19.10;52.30
44607;DHT22;30315;46.072;14.474;2023-03-23T10:05:27;19.20;52.40
44607;DHT22;30315;46.072;14.474;2023-03-23T10:07:55;19.30;52.50
44607;DHT22;30315;46.072;14.474;2023-03-23T10:10:25;19.30;52.40
44607;DHT22;30315;46.072;14.474;2023-03-23T10:12:58;19.40;52.30
44607;DHT22;30315;46.072;14.474;2023-03-23T10:15:30;19.40;52.30
44607;DHT22;30315;46.072;14.474;2023-03-23T10:18:03;19.60;52.40
44607;DHT22;30315;46.072;14.474;2023-03-23T10:20:48;19.60;52.30
44607;DHT22;30315;46.072;14.474;2023-03-23T10:23:52;19.70;52.50
44607;DHT22;30315;46.072;14.474;2023-03-23T10:28:52;20.00;51.60
44607;DHT22;30315;46.072;14.474;2023-03-23T10:31:23;20.10;51.40
44607;DHT22;30315;46.072;14.474;2023-03-23T10:33:52;20.10;50.70
44607;DHT22;30315;46.072;14.474;2023-03-23T10:36:24;20.10;50.20
44607;DHT22;30315;46.072;14.474;2023-03-23T10:39:14;20.20;50.30
44607;DHT22;30315;46.072;14.474;2023-03-23T10:41:42;20.30;50.60
44607;DHT22;30315;46.072;14.474;2023-03-23T10:44:20;20.30;50.20
44607;DHT22;30315;46.072;14.474;2023-03-23T10:47:03;20.30;50.50
44607;DHT22;30315;46.072;14.474;2023-03-23T10:52:13;20.50;50.70
44607;DHT22;30315;46.072;14.474;2023-03-23T10:57:41;20.90;49.20
44607;DHT22;30315;46.072;14.474;2023-03-23T11:00:20;21.00;48.60
44607;DHT22;30315;46.072;14.474;2023-03-23T11:03:01;21.10;47.50
44607;DHT22;30315;46.072;14.474;2023-03-23T11:08:21;21.30;47.30
44607;DHT22;30315;46.072;14.474;2023-03-23T11:10:50;21.40;46.70
44607;DHT22;30315;46.072;14.474;2023-03-23T11:13:19;21.50;46.00
44607;DHT22;30315;46.072;14.474;2023-03-23T11:15:47;21.60;46.00
44607;DHT22;30315;46.072;14.474;2023-03-23T11:18:22;21.60;45.70
44607;DHT22;30315;46.072;14.474;2023-03-23T11:20:53;21.70;46.00
44607;DHT22;30315;46.072;14.474;2023-03-23T11:23:24;21.80;45.50
44607;DHT22;30315;46.072;14.474;2023-03-23T11:29:08;21.90;45.10
44607;DHT22;30315;46.072;14.474;2023-03-23T11:31:39;21.90;45.00
44607;DHT22;30315;46.072;14.474;2023-03-23T11:34:24;21.90;45.00
44607;DHT22;30315;46.072;14.474;2023-03-23T11:39:32;22.00;44.80
44607;DHT22;30315;46.072;14.474;2023-03-23T11:42:00;21.90;44.80
44607;DHT22;30315;46.072;14.474;2023-03-23T11:44:41;22.00;44.80
44607;DHT22;30315;46.072;14.474;2023-03-23T11:50:20;22.10;44.40
44607;DHT22;30315;46.072;14.474;2023-03-23T11:56:15;22.20;43.80
44607;DHT22;30315;46.072;14.474;2023-03-23T11:58:43;22.20;43.90
44607;DHT22;30315;46.072;14.474;2023-03-23T12:04:40;22.30;43.50
44607;DHT22;30315;46.072;14.474;2023-03-23T12:07:45;22.20;43.30
44607;DHT22;30315;46.072;14.474;2023-03-23T12:10:44;22.30;43.30
44607;DHT22;30315;46.072;14.474;2023-03-23T12:13:36;22.50;43.50
44607;DHT22;30315;46.072;14.474;2023-03-23T12:16:28;22.60;43.50
44607;DHT22;30315;46.072;14.474;2023-03-23T12:19:33;22.80;43.20
44607;DHT22;30315;46.072;14.474;2023-03-23T12:25:09;22.90;42.90
44607;DHT22;30315;46.072;14.474;2023-03-23T12:33:16;22.90;43.40
44607;DHT22;30315;46.072;14.474;2023-03-23T12:36:04;23.00;44.80
44607;DHT22;30315;46.072;14.474;2023-03-23T12:38:52;23.20;45.20
44607;DHT22;30315;46.072;14.474;2023-03-23T12:41:48;23.20;44.30
44607;DHT22;30315;46.072;14.474;2023-03-23T12:44:21;23.20;44.40
44607;DHT22;30315;46.072;14.474;2023-03-23T12:47:21;23.30;44.90
44607;DHT22;30315;46.072;14.474;2023-03-23T12:50:00;23.40;44.20
44607;DHT22;30315;46.072;14.474;2023-03-23T12:52:36;23.30;44.60
44607;DHT22;30315;46.072;14.474;2023-03-23T12:55:27;23.40;43.50
44607;DHT22;30315;46.072;14.474;2023-03-23T12:58:11;23.40;44.20
44607;DHT22;30315;46.072;14.474;2023-03-23T13:01:00;23.50;42.90
44607;DHT22;30315;46.072;14.474;2023-03-23T13:03:42;23.60;42.70
44607;DHT22;30315;46.072;14.474;2023-03-23T13:06:38;23.60;41.70
44607;DHT22;30315;46.072;14.474;2023-03-23T13:09:19;23.60;41.00
44607;DHT22;30315;46.072;14.474;2023-03-23T13:11:48;23.80;42.90
44607;DHT22;30315;46.072;14.474;2023-03-23T13:26:06;24.50;40.40
44607;DHT22;30315;46.072;14.474;2023-03-23T13:28:57;24.70;41.10
44607;DHT22;30315;46.072;14.474;2023-03-23T13:31:35;24.90;40.20
44607;DHT22;30315;46.072;14.474;2023-03-23T13:34:18;25.10;40.00
44607;DHT22;30315;46.072;14.474;2023-03-23T13:40:19;25.20;38.60
44607;DHT22;30315;46.072;14.474;2023-03-23T13:42:52;25.10;38.90
44607;DHT22;30315;46.072;14.474;2023-03-23T13:45:24;24.90;38.00
44607;DHT22;30315;46.072;14.474;2023-03-23T13:48:16;24.80;38.10
44607;DHT22;30315;46.072;14.474;2023-03-23T13:53:26;24.90;38.10
44607;DHT22;30315;46.072;14.474;2023-03-23T13:56:17;25.00;38.00
44607;DHT22;30315;46.072;14.474;2023-03-23T13:59:14;25.10;37.30
44607;DHT22;30315;46.072;14.474;2023-03-23T14:01:40;25.10;36.90
44607;DHT22;30315;46.072;14.474;2023-03-23T14:04:17;25.20;36.60
44607;DHT22;30315;46.072;14.474;2023-03-23T14:06:45;25.20;36.30
44607;DHT22;30315;46.072;14.474;2023-03-23T14:09:19;25.40;36.90
44607;DHT22;30315;46.072;14.474;2023-03-23T14:12:03;25.50;36.50
44607;DHT22;30315;46.072;14.474;2023-03-23T14:14:45;25.70;36.40
44607;DHT22;30315;46.072;14.474;2023-03-23T14:17:18;25.70;36.00
44607;DHT22;30315;46.072;14.474;2023-03-23T14:19:49;25.70;36.10
44607;DHT22;30315;46.072;14.474;2023-03-23T14:22:23;25.70;36.10
44607;DHT22;30315;46.072;14.474;2023-03-23T14:24:50;25.80;36.40
44607;DHT22;30315;46.072;14.474;2023-03-23T14:27:21;25.90;36.50
44607;DHT22;30315;46.072;14.474;2023-03-23T14:29:58;26.00;36.60
44607;DHT22;30315;46.072;14.474;2023-03-23T14:32:27;26.20;36.40
44607;DHT22;30315;46.072;14.474;2023-03-23T14:34:53;26.30;36.20
44607;DHT22;30315;46.072;14.474;2023-03-23T14:37:21;26.40;35.80
44607;DHT22;30315;46.072;14.474;2023-03-23T14:39:50;26.50;35.70
44607;DHT22;30315;46.072;14.474;2023-03-23T14:42:31;26.60;35.50
44607;DHT22;30315;46.072;14.474;2023-03-23T14:44:59;26.70;35.60
44607;DHT22;30315;46.072;14.474;2023-03-23T14:49:59;26.70;35.40
44607;DHT22;30315;46.072;14.474;2023-03-23T14:52:32;26.80;35.40
44607;DHT22;30315;46.072;14.474;2023-03-23T14:55:18;26.80;35.10
44607;DHT22;30315;46.072;14.474;2023-03-23T14:57:47;26.80;35.10
44607;DHT22;30315;46.072;14.474;2023-03-23T15:02:47;26.80;35.00
44607;DHT22;30315;46.072;14.474;2023-03-23T15:07:45;26.90;35.00
44607;DHT22;30315;46.072;14.474;2023-03-23T15:10:17;27.10;35.10
44607;DHT22;30315;46.072;14.474;2023-03-23T15:12:46;27.20;34.90
44607;DHT22;30315;46.072;14.474;2023-03-23T15:15:32;27.20;34.60
44607;DHT22;30315;46.072;14.474;2023-03-23T15:18:00;27.20;34.20
44607;DHT22;30315;46.072;14.474;2023-03-23T15:20:48;27.20;34.10
44607;DHT22;30315;46.072;14.474;2023-03-23T15:23:25;27.20;34.20
44607;DHT22;30315;46.072;14.474;2023-03-23T15:25:53;27.20;34.30
44607;DHT22;30315;46.072;14.474;2023-03-23T15:28:39;27.30;34.50
44607;DHT22;30315;46.072;14.474;2023-03-23T15:31:06;27.30;34.40
44607;DHT22;30315;46.072;14.474;2023-03-23T15:33:36;27.40;33.40
44607;DHT22;30315;46.072;14.474;2023-03-23T15:36:16;27.30;33.60
44607;DHT22;30315;46.072;14.474;2023-03-23T15:38:44;27.30;33.50
44607;DHT22;30315;46.072;14.474;2023-03-23T15:41:26;27.30;33.10
44607;DHT22;30315;46.072;14.474;2023-03-23T15:43:55;27.30;33.00
44607;DHT22;30315;46.072;14.474;2023-03-23T15:46:26;27.20;32.80
44607;DHT22;30315;46.072;14.474;2023-03-23T15:51:27;27.00;33.00
44607;DHT22;30315;46.072;14.474;2023-03-23T15:53:55;27.00;33.00
44607;DHT22;30315;46.072;14.474;2023-03-23T15:56:22;26.90;32.80
44607;DHT22;30315;46.072;14.474;2023-03-23T15:58:48;26.80;32.90
44607;DHT22;30315;46.072;14.474;2023-03-23T16:01:25;26.50;33.10
44607;DHT22;30315;46.072;14.474;2023-03-23T16:03:54;26.40;33.70
44607;DHT22;30315;46.072;14.474;2023-03-23T16:06:24;26.40;33.80
44607;DHT22;30315;46.072;14.474;2023-03-23T16:08:51;26.30;33.80
44607;DHT22;30315;46.072;14.474;2023-03-23T16:11:20;26.30;33.80
44607;DHT22;30315;46.072;14.474;2023-03-23T16:13:48;26.20;34.00
44607;DHT22;30315;46.072;14.474;2023-03-23T16:16:28;26.10;33.70
44607;DHT22;30315;46.072;14.474;2023-03-23T16:18:56;26.10;34.00
44607;DHT22;30315;46.072;14.474;2023-03-23T16:21:23;26.00;34.20
44607;DHT22;30315;46.072;14.474;2023-03-23T16:23:50;26.00;34.10
44607;DHT22;30315;46.072;14.474;2023-03-23T16:26:17;25.90;34.20
44607;DHT22;30315;46.072;14.474;2023-03-23T16:28:44;25.90;34.30
44607;DHT22;30315;46.072;14.474;2023-03-23T16:31:11;25.80;34.30
44607;DHT22;30315;46.072;14.474;2023-03-23T16:33:38;25.70;34.40
44607;DHT22;30315;46.072;14.474;2023-03-23T16:36:06;25.60;34.50
44607;DHT22;30315;46.072;14.474;2023-03-23T16:38:33;25.40;34.50
44607;DHT22;30315;46.072;14.474;2023-03-23T16:41:16;25.40;34.60
44607;DHT22;30315;46.072;14.474;2023-03-23T16:43:43;25.50;34.90
44607;DHT22;30315;46.072;14.474;2023-03-23T16:46:11;25.20;34.80
44607;DHT22;30315;46.072;14.474;2023-03-23T16:48:39;25.10;34.90
44607;DHT22;30315;46.072;14.474;2023-03-23T16:51:06;25.00;35.00
44607;DHT22;30315;46.072;14.474;2023-03-23T16:53:34;24.90;35.00
44607;DHT22;30315;46.072;14.474;2023-03-23T16:56:02;24.80;34.80
44607;DHT22;30315;46.072;14.474;2023-03-23T16:58:29;24.60;35.30
44607;DHT22;30315;46.072;14.474;2023-03-23T17:00:56;24.40;35.60
44607;DHT22;30315;46.072;14.474;2023-03-23T17:03:23;24.20;35.80
44607;DHT22;30315;46.072;14.474;2023-03-23T17:05:51;24.00;35.90
44607;DHT22;30315;46.072;14.474;2023-03-23T17:08:18;23.80;36.10
44607;DHT22;30315;46.072;14.474;2023-03-23T17:10:46;23.60;36.40
44607;DHT22;30315;46.072;14.474;2023-03-23T17:13:13;23.40;36.60
44607;DHT22;30315;46.072;14.474;2023-03-23T17:15:41;23.20;37.00
44607;DHT22;30315;46.072;14.474;2023-03-23T17:18:13;23.00;37.00
44607;DHT22;30315;46.072;14.474;2023-03-23T17:20:40;22.80;37.20
44607;DHT22;30315;46.072;14.474;2023-03-23T17:23:07;22.60;37.30
44607;DHT22;30315;46.072;14.474;2023-03-23T17:25:34;22.50;37.50
44607;DHT22;30315;46.072;14.474;2023-03-23T17:28:01;22.40;38.00
44607;DHT22;30315;46.072;14.474;2023-03-23T17:30:32;22.20;38.00